Terminal Aerodrome Forecast
Issued by NWS Louisville, KY

Home | Current Version | Previous Version | Text Only | Print | Product List | Glossary On
Versions: 1 2 3 4 5 6 7 8 9 10 11 12 13 14 15 16
349
FTUS43 KLMK 280355 AAA
TAFSDF
TAF AMD
KSDF 280355Z 2804/2906 17008KT P6SM VCSH SCT030 BKN100
     FM281200 19008KT P6SM SCT035 BKN080
     FM281600 23014G21KT P6SM BKN035
     FM282200 27010KT P6SM VCTS BKN040CB=

USA.gov is the U.S. government's official web portal to all federal, state and local government web resources and services.